CheckWX is a tool to help pilots better visualize weather data.  It is not intended as a substitute for an official pre-flight weather briefing.

06:57:52 UTC

KASE TAF
Aspen-Pitkin Co / Sardy Field Airport
Aspen, Colorado, USA
KASE 210520Z 2106/2206 00000KT P6SM FEW110 FM211700 27006KT P6SM FEW250 FM220100 27006KT P6SM SCT180 FM220400 23005KT P6SM FEW250

Sep-21@
06:00 UTC

Sep-21 @ 06:00 UTC

Sep-21@
17:00 UTC

Sep-21 @ 17:00 UTC

KASE 210520Z 2106/2206 00000KT P6SM FEW110
Cloud Levels
  • Few at 11,000' AGL

Sep-21@
17:00 UTC

Sep-21 @ 17:00 UTC

Sep-22@
01:00 UTC

Sep-22 @ 01:00 UTC

FM211700 27006KT P6SM FEW250

From

From Standard forecast or significant change

Wind
  • 270° at 6 KTS
Cloud Levels
  • Few at 25,000' AGL

Sep-22@
01:00 UTC

Sep-22 @ 01:00 UTC

Sep-22@
04:00 UTC

Sep-22 @ 04:00 UTC

FM220100 27006KT P6SM SCT180

From

From Standard forecast or significant change

Wind
  • 270° at 6 KTS
Cloud Levels
  • Scattered at 18,000' AGL

Sep-22@
04:00 UTC

Sep-22 @ 04:00 UTC

Sep-22@
06:00 UTC

Sep-22 @ 06:00 UTC

FM220400 23005KT P6SM FEW250

From

From Standard forecast or significant change

Wind
  • 230° at 5 KTS
Cloud Levels
  • Few at 25,000' AGL